Sonic Adventure (DX): Boss Rankings

Records: Times | Rings | Scores | Races | Bosses | Freestyle
Leaders: Times | Rings | Scores | Races | Bosses | Freestyle | Overall
Rank Player Percent Points Date
1 Sonicspeedruner 98.7% 25 03-04-15
2 Gamepro011 97.0% 60 03-04-15
3 Austinf 93.4% 132 03-04-15
4 DarkPolarNight 92.4% 151 03-04-15
5 Jawzun 90.5% 189 03-04-15
6 Parax 88.7% 226 03-04-15
7 ike6252 88.4% 232 03-04-15
8 Dashjump 86.3% 274 03-04-15
9 Avento128bits 85.8% 285 03-04-15
10 DarkspinesSonic 82.7% 346 03-04-15
11 Coolfansonic 81.0% 381 03-04-15
12 THC98 79.5% 410 03-04-15
13 F-Man 78.3% 435 03-04-15
14 TheRealShadnic 78.0% 440 03-04-15
15 Marth 77.4% 454 03-04-15
16 yoshifan 75.8% 486 03-04-15
17 PfoSonic 74.3% 516 03-04-15
18 InferSaime 73.8% 526 03-04-15
19 HyperSonic7701 71.9% 563 03-04-15
20 RPGnutter 71.1% 580 03-04-15
21 Paragod 69.7% 607 03-04-15
22 mike89 69.1% 620 03-04-15
23 frankoredstrato 69.0% 621 03-04-15
24 Groudon199 64.7% 708 03-04-15
25 sonicam 64.5% 713 03-04-15
26 SadisticMystic 63.7% 728 03-04-15
27 drminus 63.2% 738 03-04-15
28 Stefan 62.5% 753 03-04-15
29 Diamond 61.4% 774 03-04-15
30 Combo 58.7% 829 03-04-15
31 bertin 58.5% 832 03-04-15
32 xXMegaManXx 56.8% 867 03-04-15
33 SkyLights 56.0% 883 03-04-15
34 Dawid8404 52.0% 963 03-04-15
35 Fr3nZy 50.2% 999 03-04-15
36 francisco 49.9% 1005 03-04-15
37 OmegaDJ 47.9% 1046 03-04-15
38 Arch 46.5% 1074 03-04-15
39 P1 Pause 45.3% 1098 03-04-15
40 Omega Rafael Santos 44.4% 1115 03-04-15
41 Andrea Ritsu 42.8% 1148 03-04-15
42 magnum12 42.6% 1152 03-04-15
43 Auriman1 38.7% 1230 03-04-15
44 James_Bertolli 36.1% 1282 03-04-15
45 teamblackarms 34.7% 1311 03-04-15
46 FuzZerd 33.8% 1328 03-04-15
47 Hunters13 33.7% 1331 03-04-15
48 Psymar 32.7% 1352 03-04-15
48 Quartz 32.7% 1352 03-04-15
50 eggFL 32.3% 1359 03-04-15
51 Cyan Ryan 31.9% 1367 03-04-15
52 GerbilSoft 31.0% 1385 03-04-15
53 elecmouse101 30.8% 1390 03-04-15
54 Thorn 30.5% 1396 03-04-15
55 Webber3000 30.3% 1400 03-04-15
56 videogamemaster777 29.9% 1408 03-04-15
57 Mo Player Banned 29.0% 1425 03-04-15
58 Turbos 28.3% 1440 03-04-15
59 Termon 27.4% 1457 03-04-15
60 Dave Cramer 26.3% 1479 03-04-15
61 Flying Fox 26.1% 1483 03-04-15
62 buddychaos0415 25.7% 1491 03-04-15
63 nuckrieg 25.1% 1503 03-04-15
64 Mariobutch 24.9% 1508 03-04-15
65 Shadow Jacky 24.0% 1526 03-04-15
66 Cream147 21.5% 1577 03-04-15
67 supersonicfan 21.4% 1579 03-04-15
68 MiStEr_ShAoLiN 21.2% 1582 03-04-15
69 NintenDan 21.0% 1587 03-04-15
70 itsPersonnal 20.8% 1591 03-04-15
71 Nimrod 20.7% 1592 03-04-15
71 The T 20.7% 1592 03-04-15
73 Cybrax 20.3% 1600 03-04-15
74 supersonic465 20.3% 1601 03-04-15
75 Aitamen 19.7% 1613 03-04-15
76 Cruizer 19.0% 1626 03-04-15
77 SonicWinDX 18.8% 1631 03-04-15
78 VMU Player Banned 17.9% 1648 03-04-15
79 The Great Lord Mick 16.8% 1671 03-04-15
80 GreatStar 15.8% 1690 03-04-15
80 Questionguy555 15.8% 1690 03-04-15
82 Spinballwizard 15.3% 1701 03-04-15
83 Sondow 14.5% 1717 03-04-15
84 sonicandamy 14.3% 1721 03-04-15
85 GarnetPrincess 13.3% 1740 03-04-15
86 SonicAD 12.2% 1762 03-04-15
87 Don 11.4% 1779 03-04-15
88 Miles9999 11.1% 1786 03-04-15
89 Siavash Tazari 10.9% 1789 03-04-15
90 BigAL49 10.5% 1798 03-04-15
91 Psyknux 10.1% 1805 03-04-15
91 Werey 10.1% 1805 03-04-15
93 Cutiefox 10.0% 1808 03-04-15
93 joecoolgames 10.0% 1808 03-04-15
95 knuckles_sonic8 9.7% 1814 03-04-15
96 mauserman 9.4% 1819 03-04-15
97 EngiNerd 8.9% 1830 03-04-15
98 Sonic Singularity 8.7% 1833 03-04-15
99 dShadow 8.5% 1837 03-04-15
100 Hipertails12 8.2% 1843 03-04-15
101 Shanekilz 8.0% 1847 03-04-15
102 Therio 7.7% 1854 03-04-15
103 Mastakirby 7.4% 1859 03-04-15
104 chainchumper 7.2% 1863 03-04-15
105 sonic29887 7.0% 1867 03-04-15
106 TheChaosEmeraIds 6.8% 1872 03-04-15
107 Chao_Fan 6.7% 1874 03-04-15
108 FocusSight64 6.6% 1875 03-04-15
109 tal39h 6.1% 1886 03-04-15
110 djmat 6.0% 1887 03-04-15
111 paulie9990 5.8% 1891 03-04-15
112 Sogeking 5.5% 1897 03-04-15
113 Brian_pso 5.0% 1908 03-04-15
114 Chawkk 4.9% 1909 03-04-15
115 SilvertheAlmighty 4.7% 1913 03-04-15
116 MK 4.5% 1917 03-04-15
117 SpinDashMaster 4.5% 1918 03-04-15
118 MastaToken 4.3% 1921 03-04-15
119 SpiritDragon1995 3.9% 1929 03-04-15
120 Sonique Hedgehog 3.8% 1931 03-04-15
121 KinkyCadence 3.7% 1934 03-04-15
122 Mad Andy 3.4% 1939 03-04-15
123 PsyBorg 3.4% 1940 03-04-15
124 FSSRandomvids 3.2% 1944 03-04-15
125 Xia 2.9% 1949 03-04-15
126 Rolken 2.9% 1950 03-04-15
127 andres430 2.6% 1956 03-04-15
128 crazy1993 2.2% 1963 03-04-15
128 dabestgamer 2.2% 1963 03-04-15
130 shadowblast63 Player Banned 2.2% 1964 03-04-15
131 Illidan 2.1% 1966 03-04-15
132 Richied 2.0% 1968 03-04-15
133 gamer1245 1.8% 1971 03-04-15
134 DanielTheFalcon 1.8% 1972 03-04-15
134 Iwannabelink 1.8% 1972 03-04-15
136 oTaiIilLsS 1.4% 1980 03-04-15
137 soniccoloursunleashed 1.3% 1982 03-04-15
138 niscool 1.2% 1983 03-04-15
139 ieatatsonic 1.1% 1986 03-04-15
140 Redd 1.0% 1987 03-04-15
141 Lil_Dude 0.7% 1993 03-04-15
141 LinksDarkArrows 0.7% 1993 03-04-15
143 Cbwade15 0.4% 1999 03-04-15
144 neaolas 0.3% 2002 03-04-15
145 BlankTH 0.2% 2004 03-04-15
146 Heroes_Hater 0.1% 2005 03-04-15
147 S-MS32X-S 0.0% 2007 03-04-15
148 KaM Mark MaK 0.0% 2009 03-04-15
148 MegabombBlade 0.0% 2009 03-04-15

This page is using the New Data Table System. [FUTURE]

Game ID: 3 | Category ID: 6
Hits: 3,864 | Hits This Month: 6 | DB Calls: 24 | Mem Usage: 5.33 MB | Time: 0.14s | Printable

The Sonic Center v3.9
Copyright 2003-2011 by The Sonic Center Team.